createdAt,value
2018-04-30T00:00:43.382Z,98298.17
2018-04-30T00:03:10.874Z,98311.32
2018-04-30T00:05:38.396Z,98317.66
2018-04-30T00:08:06.446Z,98333.70
2018-04-30T00:10:33.985Z,98345.16
2018-04-30T00:13:01.534Z,98374.73
2018-04-30T00:15:29.110Z,98401.80
2018-04-30T00:17:56.658Z,98373.91
2018-04-30T00:20:24.213Z,98340.59
2018-04-30T00:22:51.737Z,98334.14
2018-04-30T00:25:19.268Z,98330.39
2018-04-30T00:27:46.767Z,98322.61
2018-04-30T00:30:14.322Z,98330.44
2018-04-30T00:32:41.826Z,98345.89
2018-04-30T00:35:09.363Z,98341.33
2018-04-30T00:37:36.921Z,98333.78
2018-04-30T00:40:04.464Z,98320.97
2018-04-30T00:42:32.045Z,98324.25
2018-04-30T00:44:59.630Z,98313.36
2018-04-30T00:47:27.144Z,98310.08
2018-04-30T00:49:54.666Z,98305.43
2018-04-30T00:52:22.164Z,98306.61
2018-04-30T00:55:00.546Z,98312.61
2018-04-30T00:57:28.077Z,98317.21
2018-04-30T00:59:55.625Z,98318.72
2018-04-30T01:02:23.200Z,98310.47
2018-04-30T01:04:50.733Z,98305.66
2018-04-30T01:07:18.254Z,98306.55
2018-04-30T01:09:45.774Z,98309.59
2018-04-30T01:12:21.287Z,98307.16
2018-04-30T01:14:48.847Z,98309.81
2018-04-30T01:17:16.361Z,98313.34
2018-04-30T01:19:43.850Z,98309.11
2018-04-30T01:22:11.370Z,98310.88
2018-04-30T01:24:38.878Z,98307.57
2018-04-30T01:27:06.430Z,98307.02
2018-04-30T01:29:33.924Z,98309.75
2018-04-30T01:32:01.490Z,98313.20
2018-04-30T01:34:29.042Z,98312.80
2018-04-30T01:36:56.694Z,98323.08
2018-04-30T01:39:24.804Z,98310.42
2018-04-30T01:41:52.423Z,98316.97
2018-04-30T01:44:20.113Z,98321.47
2018-04-30T01:46:47.657Z,98315.32
2018-04-30T01:49:15.293Z,98313.38
2018-04-30T01:51:43.750Z,98318.82
2018-04-30T01:54:11.635Z,98310.83
2018-04-30T01:56:39.255Z,98308.52
2018-04-30T01:59:09.784Z,98307.30
2018-04-30T02:01:37.330Z,98300.97
2018-04-30T02:04:04.852Z,98300.67
2018-04-30T02:06:32.392Z,98307.63
2018-04-30T02:08:59.869Z,98305.86
2018-04-30T02:11:27.382Z,98317.50
2018-04-30T02:13:54.890Z,98313.81
2018-04-30T02:16:22.521Z,98304.17
2018-04-30T02:18:50.039Z,98298.42
2018-04-30T02:21:17.568Z,98282.95
2018-04-30T02:23:45.096Z,98280.05
2018-04-30T02:26:12.628Z,98273.83
2018-04-30T02:28:40.150Z,98260.65
2018-04-30T02:31:13.016Z,98262.67
2018-04-30T02:33:40.645Z,98270.52
2018-04-30T02:36:08.114Z,98271.55
2018-04-30T02:38:35.706Z,98271.00
2018-04-30T02:41:03.241Z,98281.48
2018-04-30T02:43:30.790Z,98284.55
2018-04-30T02:45:58.309Z,98293.42
2018-04-30T02:48:25.857Z,98300.16
2018-04-30T02:50:53.357Z,98299.75
2018-04-30T02:53:20.866Z,98299.27
2018-04-30T02:55:48.963Z,98296.88
2018-04-30T02:58:16.539Z,98300.16
2018-04-30T03:00:44.022Z,98306.59
2018-04-30T03:03:11.591Z,98298.24
2018-04-30T03:05:40.358Z,98305.23
2018-04-30T03:08:07.891Z,98311.64
2018-04-30T03:10:35.380Z,98315.41
2018-04-30T03:13:10.975Z,98327.73
2018-04-30T03:15:38.516Z,98335.77
2018-04-30T03:18:08.350Z,98341.70
2018-04-30T03:20:35.886Z,98344.08
2018-04-30T03:23:06.103Z,98339.42
2018-04-30T03:25:34.611Z,98328.21
2018-04-30T03:28:02.174Z,98335.21
2018-04-30T03:30:29.719Z,98335.98
2018-04-30T03:32:58.681Z,98339.13
2018-04-30T03:35:26.159Z,98337.67
2018-04-30T03:37:53.843Z,98335.33
2018-04-30T03:40:21.332Z,98340.23
2018-04-30T03:42:48.873Z,98347.20
2018-04-30T03:45:16.376Z,98355.42
2018-04-30T03:47:43.908Z,98353.02
2018-04-30T03:50:15.949Z,98346.60
2018-04-30T03:52:43.438Z,98332.05
2018-04-30T03:55:10.900Z,98331.00
2018-04-30T03:57:38.386Z,98336.05
2018-04-30T04:00:05.845Z,98335.09
2018-04-30T04:02:45.147Z,98339.63
2018-04-30T04:05:24.310Z,98342.29
2018-04-30T04:07:51.789Z,98351.95
2018-04-30T04:10:19.319Z,98363.81
2018-04-30T04:12:46.834Z,98373.10
2018-04-30T04:15:14.284Z,98372.92
2018-04-30T04:17:41.783Z,98375.16
2018-04-30T04:20:09.247Z,98377.00
2018-04-30T04:22:36.702Z,98378.08
2018-04-30T04:25:04.186Z,98376.92
2018-04-30T04:27:31.652Z,98374.00
2018-04-30T04:29:59.838Z,98378.95
2018-04-30T04:32:27.304Z,98383.28
2018-04-30T04:34:54.772Z,98380.91
2018-04-30T04:37:22.229Z,98386.95
2018-04-30T04:39:49.715Z,98387.63
2018-04-30T04:42:17.168Z,98387.77
2018-04-30T04:44:44.641Z,98385.86
2018-04-30T04:47:12.100Z,98388.92
2018-04-30T04:49:39.581Z,98391.09
2018-04-30T04:52:07.035Z,98388.60
2018-04-30T04:54:34.521Z,98386.89
2018-04-30T04:57:01.978Z,98397.80
2018-04-30T04:59:29.518Z,98400.64
2018-04-30T05:01:56.990Z,98411.92
2018-04-30T05:04:24.486Z,98415.34
2018-04-30T05:06:51.949Z,98421.35
2018-04-30T05:09:19.421Z,98428.50
2018-04-30T05:11:46.874Z,98425.20
2018-04-30T05:14:14.358Z,98425.20
2018-04-30T05:16:41.837Z,98428.83
2018-04-30T05:19:09.330Z,98446.11
2018-04-30T05:21:36.801Z,98446.11
2018-04-30T05:24:04.279Z,98432.33
2018-04-30T05:26:31.739Z,98433.83
2018-04-30T05:28:59.213Z,98434.38
2018-04-30T05:31:26.661Z,98447.90
2018-04-30T05:33:54.168Z,98439.88
2018-04-30T05:36:21.614Z,98424.25
2018-04-30T05:38:49.097Z,98413.58
2018-04-30T05:41:16.553Z,98421.16
2018-04-30T05:43:44.028Z,98419.77
2018-04-30T05:46:11.487Z,98427.95
2018-04-30T05:48:38.954Z,98448.38
2018-04-30T05:51:06.434Z,98474.30
2018-04-30T05:53:33.896Z,98487.78
2018-04-30T05:56:01.378Z,98497.42
2018-04-30T05:58:28.834Z,98499.22
2018-04-30T06:00:56.316Z,98494.70
2018-04-30T06:03:23.773Z,98497.16
2018-04-30T06:05:51.242Z,98491.48
2018-04-30T06:08:18.703Z,98490.50
2018-04-30T06:10:46.177Z,98495.27
2018-04-30T06:13:13.638Z,98502.25
2018-04-30T06:15:41.114Z,98510.61
2018-04-30T06:18:08.577Z,98521.34
2018-04-30T06:20:36.062Z,98508.20
2018-04-30T06:23:03.530Z,98509.35
2018-04-30T06:25:31.013Z,98509.97
2018-04-30T06:27:58.469Z,98507.30
2018-04-30T06:30:25.948Z,98510.23
2018-04-30T06:32:53.405Z,98506.13
2018-04-30T06:35:20.884Z,98512.22
2018-04-30T06:37:48.349Z,98509.44
2018-04-30T06:40:16.674Z,98497.89
2018-04-30T06:42:44.141Z,98497.48
2018-04-30T06:45:11.620Z,98515.81
2018-04-30T06:47:39.082Z,98514.66
2018-04-30T06:50:06.558Z,98509.94
2018-04-30T06:52:34.014Z,98514.13
2018-04-30T06:55:01.498Z,98525.37
2018-04-30T06:57:28.969Z,98523.42
2018-04-30T06:59:56.456Z,98520.41
2018-04-30T07:02:23.925Z,98525.25
2018-04-30T07:04:51.410Z,98533.27
2018-04-30T07:07:18.878Z,98542.42
2018-04-30T07:09:46.365Z,98542.82
2018-04-30T07:12:13.831Z,98535.33
2018-04-30T07:14:41.299Z,98540.57
2018-04-30T07:17:08.777Z,98544.45
2018-04-30T07:19:36.242Z,98549.03
2018-04-30T07:22:03.720Z,98545.27
2018-04-30T07:24:31.181Z,98540.89
2018-04-30T07:26:58.653Z,98542.39
2018-04-30T07:29:26.106Z,98542.83
2018-04-30T07:31:53.606Z,98540.13
2018-04-30T07:34:21.078Z,98525.59
2018-04-30T07:36:48.569Z,98530.52
2018-04-30T07:39:16.018Z,98527.45
2018-04-30T07:41:43.489Z,98539.15
2018-04-30T07:44:10.954Z,98550.02
2018-04-30T07:46:38.424Z,98555.95
2018-04-30T07:49:05.880Z,98557.50
2018-04-30T07:51:33.361Z,98564.84
2018-04-30T07:54:00.818Z,98566.84
2018-04-30T07:56:28.295Z,98558.14
2018-04-30T07:58:55.755Z,98569.25
2018-04-30T08:01:23.237Z,98570.45
2018-04-30T08:03:50.697Z,98568.98
2018-04-30T08:06:18.190Z,98553.56
2018-04-30T08:08:45.660Z,98554.45
2018-04-30T08:11:13.137Z,98550.08
2018-04-30T08:13:40.590Z,98551.69
2018-04-30T08:16:08.064Z,98565.42
2018-04-30T08:18:35.520Z,98563.88
2018-04-30T08:21:02.997Z,98566.14
2018-04-30T08:23:30.456Z,98556.72
2018-04-30T08:25:57.933Z,98557.86
2018-04-30T08:28:25.399Z,98568.98
2018-04-30T08:30:52.878Z,98572.59
2018-04-30T08:33:20.330Z,98578.10
2018-04-30T08:35:47.817Z,98590.45
2018-04-30T08:38:15.276Z,98587.83
2018-04-30T08:40:42.739Z,98593.43
2018-04-30T08:43:10.219Z,98591.52
2018-04-30T08:45:37.675Z,98593.45
2018-04-30T08:48:05.154Z,98593.11
2018-04-30T08:50:32.609Z,98596.50
2018-04-30T08:53:00.086Z,98605.13
2018-04-30T08:55:27.549Z,98605.80
2018-04-30T08:57:55.028Z,98604.23
2018-04-30T09:00:22.546Z,98616.72
2018-04-30T09:02:49.991Z,98605.97
2018-04-30T09:05:17.449Z,98610.48
2018-04-30T09:07:44.926Z,98598.69
2018-04-30T09:10:12.379Z,98607.92
2018-04-30T09:12:39.857Z,98611.31
2018-04-30T09:15:07.372Z,98611.05
2018-04-30T09:17:34.821Z,98613.73
2018-04-30T09:20:02.289Z,98604.90
2018-04-30T09:22:29.773Z,98610.98
2018-04-30T09:24:57.252Z,98609.77
2018-04-30T09:27:24.733Z,98621.94
2018-04-30T09:29:52.189Z,98624.41
2018-04-30T09:32:19.665Z,98622.96
2018-04-30T09:34:47.117Z,98624.50
2018-04-30T09:37:14.611Z,98628.09
2018-04-30T09:39:42.127Z,98632.16
2018-04-30T09:42:09.665Z,98627.92
2018-04-30T09:44:37.126Z,98636.72
2018-04-30T09:47:04.610Z,98623.02
2018-04-30T09:49:32.117Z,98631.77
2018-04-30T09:51:59.598Z,98643.73
2018-04-30T09:54:27.051Z,98644.46
2018-04-30T09:56:54.535Z,98646.27
2018-04-30T09:59:21.988Z,98648.22
2018-04-30T10:01:49.474Z,98640.85
2018-04-30T10:04:16.929Z,98642.89
2018-04-30T10:06:44.395Z,98646.50
2018-04-30T10:09:11.869Z,98643.19
2018-04-30T10:11:39.354Z,98648.70
2018-04-30T10:14:06.834Z,98648.37
2018-04-30T10:16:34.281Z,98650.27
2018-04-30T10:19:01.824Z,98645.96
2018-04-30T10:21:29.405Z,98646.25
2018-04-30T10:23:56.920Z,98639.16
2018-04-30T10:26:24.379Z,98641.22
2018-04-30T10:28:51.855Z,98642.83
2018-04-30T10:31:19.311Z,98642.25
2018-04-30T10:33:46.846Z,98653.55
2018-04-30T10:36:14.297Z,98653.53
2018-04-30T10:38:41.806Z,98650.05
2018-04-30T10:41:09.266Z,98646.53
2018-04-30T10:43:36.750Z,98645.75
2018-04-30T10:46:04.247Z,98642.93
2018-04-30T10:48:31.692Z,98649.39
2018-04-30T10:50:59.153Z,98647.95
2018-04-30T10:53:26.629Z,98643.47
2018-04-30T10:55:54.094Z,98655.22
2018-04-30T10:58:21.577Z,98649.98
2018-04-30T11:00:49.035Z,98648.34
2018-04-30T11:03:16.513Z,98647.21
2018-04-30T11:05:43.965Z,98645.81
2018-04-30T11:08:11.454Z,98644.62
2018-04-30T11:10:38.954Z,98643.92
2018-04-30T11:13:06.446Z,98643.00
2018-04-30T11:15:33.901Z,98648.34
2018-04-30T11:18:01.385Z,98644.80
2018-04-30T11:20:28.867Z,98649.69
2018-04-30T11:22:56.351Z,98653.25
2018-04-30T11:25:23.822Z,98652.09
2018-04-30T11:27:51.325Z,98649.30
2018-04-30T11:30:18.789Z,98659.92
2018-04-30T11:32:46.241Z,98652.50
2018-04-30T11:35:13.737Z,98654.98
2018-04-30T11:37:41.219Z,98654.83
2018-04-30T11:40:08.719Z,98658.80
2018-04-30T11:42:36.193Z,98668.13
2018-04-30T11:45:03.689Z,98668.36
2018-04-30T11:47:31.149Z,98668.90
2018-04-30T11:49:58.633Z,98674.09
2018-04-30T11:52:26.106Z,98682.73
2018-04-30T11:54:53.594Z,98674.65
2018-04-30T11:57:21.065Z,98677.58
2018-04-30T11:59:48.554Z,98685.38
2018-04-30T12:02:16.077Z,98687.28
2018-04-30T12:04:43.577Z,98685.44
2018-04-30T12:07:11.054Z,98691.27
2018-04-30T12:09:38.549Z,98706.53
2018-04-30T12:12:06.017Z,98705.39
2018-04-30T12:14:33.505Z,98701.09
2018-04-30T12:17:00.984Z,98707.28
2018-04-30T12:19:28.473Z,98714.86
2018-04-30T12:21:56.073Z,98711.27
2018-04-30T12:24:23.581Z,98714.81
2018-04-30T12:26:51.045Z,98714.56
2018-04-30T12:29:18.546Z,98717.31
2018-04-30T12:31:46.022Z,98711.16
2018-04-30T12:34:13.515Z,98703.09
2018-04-30T12:36:40.992Z,98707.45
2018-04-30T12:39:08.482Z,98712.61
2018-04-30T12:41:35.969Z,98703.44
2018-04-30T12:44:03.465Z,98707.52
2018-04-30T12:46:30.937Z,98705.86
2018-04-30T12:48:58.434Z,98703.69
2018-04-30T12:51:25.900Z,98705.57
2018-04-30T12:53:53.409Z,98704.56
2018-04-30T12:56:20.889Z,98698.55
2018-04-30T12:58:48.368Z,98717.82
2018-04-30T13:01:15.861Z,98713.67
2018-04-30T13:03:43.322Z,98716.59
2018-04-30T13:06:10.818Z,98721.80
2018-04-30T13:08:38.292Z,98730.82
2018-04-30T13:11:05.769Z,98726.45
2018-04-30T13:13:33.242Z,98733.42
2018-04-30T13:16:00.749Z,98742.92
2018-04-30T13:18:28.225Z,98740.99
2018-04-30T13:20:55.710Z,98744.37
2018-04-30T13:23:23.177Z,98741.36
2018-04-30T13:25:50.654Z,98744.55
2018-04-30T13:28:18.105Z,98742.92
2018-04-30T13:30:45.608Z,98746.34
2018-04-30T13:33:13.074Z,98746.31
2018-04-30T13:35:40.554Z,98746.66
2018-04-30T13:38:08.012Z,98747.05
2018-04-30T13:40:35.484Z,98750.61
2018-04-30T13:43:02.935Z,98732.27
2018-04-30T13:45:30.419Z,98737.60
2018-04-30T13:47:57.877Z,98743.55
2018-04-30T13:50:25.355Z,98751.93
2018-04-30T13:52:52.811Z,98742.99
2018-04-30T13:55:20.297Z,98743.11
2018-04-30T13:57:47.759Z,98748.72
2018-04-30T14:00:15.258Z,98752.27
2018-04-30T14:02:42.720Z,98748.38
2018-04-30T14:05:10.202Z,98752.94
2018-04-30T14:07:37.658Z,98742.22
2018-04-30T14:10:05.141Z,98735.52
2018-04-30T14:12:32.655Z,98744.72
2018-04-30T14:15:00.095Z,98739.91
2018-04-30T14:17:27.549Z,98737.91
2018-04-30T14:19:55.010Z,98746.20
2018-04-30T14:22:22.489Z,98742.44
2018-04-30T14:24:49.951Z,98738.33
2018-04-30T14:27:17.425Z,98746.70
2018-04-30T14:29:44.877Z,98760.66
2018-04-30T14:32:12.351Z,98744.87
2018-04-30T14:34:39.809Z,98755.05
2018-04-30T14:37:07.285Z,98751.47
2018-04-30T14:39:34.766Z,98754.88
2018-04-30T14:42:02.252Z,98754.16
2018-04-30T14:44:29.804Z,98756.00
2018-04-30T14:46:57.210Z,98763.08
2018-04-30T14:49:24.670Z,98773.52
2018-04-30T14:51:52.184Z,98763.10
2018-04-30T14:54:19.636Z,98764.27
2018-04-30T14:56:47.178Z,98764.02
2018-04-30T14:59:14.594Z,98757.90
2018-04-30T15:01:42.069Z,98763.30
2018-04-30T15:04:09.536Z,98764.86
2018-04-30T15:06:37.017Z,98767.36
2018-04-30T15:09:05.252Z,98763.81
2018-04-30T15:11:32.734Z,98770.48
2018-04-30T15:14:00.205Z,98772.88
2018-04-30T15:16:27.686Z,98767.19
2018-04-30T15:18:55.153Z,98772.16
2018-04-30T15:21:22.626Z,98770.07
2018-04-30T15:23:50.084Z,98774.48
2018-04-30T15:26:17.572Z,98787.89
2018-04-30T15:28:45.055Z,98771.23
2018-04-30T15:31:12.791Z,98788.25
2018-04-30T15:33:40.274Z,98773.45
2018-04-30T15:36:07.752Z,98775.70
2018-04-30T15:38:35.209Z,98763.55
2018-04-30T15:41:02.751Z,98766.42
2018-04-30T15:43:30.205Z,98768.97
2018-04-30T15:45:57.711Z,98752.56
2018-04-30T15:48:25.194Z,98747.16
2018-04-30T15:50:52.649Z,98746.48
2018-04-30T15:53:20.171Z,98748.25
2018-04-30T15:55:47.655Z,98753.23
2018-04-30T15:58:15.365Z,98758.84
2018-04-30T16:00:42.817Z,98764.94
2018-04-30T16:03:10.299Z,98760.25
2018-04-30T16:05:37.757Z,98766.71
2018-04-30T16:08:05.226Z,98768.00
2018-04-30T16:10:32.686Z,98769.03
2018-04-30T16:13:00.230Z,98768.66
2018-04-30T16:15:27.693Z,98772.16
2018-04-30T16:17:55.174Z,98772.36
2018-04-30T16:20:22.720Z,98774.42
2018-04-30T16:22:50.879Z,98767.36
2018-04-30T16:25:18.338Z,98765.59
2018-04-30T16:27:45.832Z,98771.89
2018-04-30T16:30:13.463Z,98766.95
2018-04-30T16:32:40.955Z,98753.55
2018-04-30T16:35:08.588Z,98763.53
2018-04-30T16:37:36.002Z,98750.95
2018-04-30T16:40:03.519Z,98746.90
2018-04-30T16:42:30.990Z,98756.70
2018-04-30T16:44:58.454Z,98753.72
2018-04-30T16:47:25.951Z,98744.77
2018-04-30T16:49:53.415Z,98751.16
2018-04-30T16:52:20.921Z,98759.02
2018-04-30T16:54:48.382Z,98752.36
2018-04-30T16:57:15.863Z,98748.64
2018-04-30T16:59:43.346Z,98759.20
2018-04-30T17:02:10.823Z,98753.05
2018-04-30T17:04:38.281Z,98756.63
2018-04-30T17:07:05.815Z,98755.66
2018-04-30T17:09:33.264Z,98764.50
2018-04-30T17:12:00.735Z,98766.17
2018-04-30T17:14:28.218Z,98773.08
2018-04-30T17:16:55.678Z,98780.88
2018-04-30T17:19:23.158Z,98773.97
2018-04-30T17:21:50.614Z,98773.36
2018-04-30T17:24:18.157Z,98774.32
2018-04-30T17:26:45.575Z,98772.15
2018-04-30T17:29:13.049Z,98765.86
2018-04-30T17:31:40.506Z,98760.88
2018-04-30T17:34:07.981Z,98761.97
2018-04-30T17:36:35.494Z,98763.30
2018-04-30T17:39:02.921Z,98761.42
2018-04-30T17:41:30.762Z,98782.55
2018-04-30T17:43:58.245Z,98783.22
2018-04-30T17:46:25.713Z,98779.20
2018-04-30T17:48:53.212Z,98775.16
2018-04-30T17:51:20.683Z,98773.91
2018-04-30T17:53:48.171Z,98775.27
2018-04-30T17:56:15.636Z,98776.13
2018-04-30T17:58:43.186Z,98778.80
2018-04-30T18:01:10.625Z,98773.56
2018-04-30T18:03:38.110Z,98770.66
2018-04-30T18:06:05.613Z,98765.52
2018-04-30T18:08:33.102Z,98758.48
2018-04-30T18:11:00.565Z,98762.56
2018-04-30T18:13:28.056Z,98754.98
2018-04-30T18:15:55.517Z,98755.73
2018-04-30T18:18:23.001Z,98756.27
2018-04-30T18:20:50.499Z,98752.13
2018-04-30T18:23:17.966Z,98754.05
2018-04-30T18:25:45.446Z,98758.06
2018-04-30T18:28:12.910Z,98765.25
2018-04-30T18:30:40.441Z,98762.39
2018-04-30T18:33:07.895Z,98762.11
2018-04-30T18:35:35.389Z,98760.72
2018-04-30T18:38:02.843Z,98768.52
2018-04-30T18:40:30.326Z,98774.07
2018-04-30T18:42:57.784Z,98771.45
2018-04-30T18:45:25.326Z,98765.77
2018-04-30T18:47:52.741Z,98778.03
2018-04-30T18:50:20.222Z,98778.77
2018-04-30T18:52:47.682Z,98786.38
2018-04-30T18:55:15.163Z,98776.24
2018-04-30T18:57:42.614Z,98785.03
2018-04-30T19:00:10.150Z,98791.13
2018-04-30T19:02:37.715Z,98787.08
2018-04-30T19:05:05.110Z,98789.47
2018-04-30T19:07:32.565Z,98804.54
2018-04-30T19:10:00.050Z,98786.73
2018-04-30T19:12:27.507Z,98784.23
2018-04-30T19:14:54.990Z,98785.59
2018-04-30T19:17:22.442Z,98787.97
2018-04-30T19:19:49.925Z,98775.97
2018-04-30T19:22:17.458Z,98785.16
2018-04-30T19:24:44.941Z,98781.50
2018-04-30T19:27:12.485Z,98773.03
2018-04-30T19:29:39.893Z,98780.25
2018-04-30T19:32:07.350Z,98789.22
2018-04-30T19:34:34.830Z,98788.28
2018-04-30T19:37:02.299Z,98793.45
2018-04-30T19:39:29.778Z,98796.69
2018-04-30T19:41:57.246Z,98801.16
2018-04-30T19:44:24.726Z,98815.52
2018-04-30T19:46:53.024Z,98812.19
2018-04-30T19:49:20.505Z,98805.14
2018-04-30T19:51:47.965Z,98796.09
2018-04-30T19:54:15.414Z,98805.95
2018-04-30T19:56:42.893Z,98763.23
2018-04-30T19:59:10.348Z,98793.27
2018-04-30T20:01:37.821Z,98808.56
2018-04-30T20:04:05.282Z,98810.20
2018-04-30T20:06:32.766Z,98804.63
2018-04-30T20:09:00.213Z,98806.56
2018-04-30T20:11:27.695Z,98813.45
2018-04-30T20:13:55.151Z,98803.05
2018-04-30T20:16:22.634Z,98818.05
2018-04-30T20:18:50.087Z,98819.55
2018-04-30T20:21:17.569Z,98818.04
2018-04-30T20:23:45.026Z,98824.80
2018-04-30T20:26:12.494Z,98826.98
2018-04-30T20:28:39.952Z,98830.10
2018-04-30T20:31:07.428Z,98827.09
2018-04-30T20:33:34.877Z,98832.52
2018-04-30T20:36:02.362Z,98835.63
2018-04-30T20:38:29.817Z,98828.50
2018-04-30T20:40:57.303Z,98833.34
2018-04-30T20:43:24.762Z,98826.75
2018-04-30T20:45:52.238Z,98837.55
2018-04-30T20:48:19.681Z,98838.50
2018-04-30T20:50:47.165Z,98841.78
2018-04-30T20:53:14.644Z,98844.73
2018-04-30T20:55:42.097Z,98844.20
2018-04-30T20:58:09.576Z,98848.27
2018-04-30T21:00:37.050Z,98840.56
2018-04-30T21:03:04.529Z,98853.30
2018-04-30T21:05:31.977Z,98840.36
2018-04-30T21:07:59.475Z,98849.28
2018-04-30T21:10:26.925Z,98868.31
2018-04-30T21:12:54.404Z,98868.88
2018-04-30T21:15:21.860Z,98876.45
2018-04-30T21:17:49.346Z,98892.26
2018-04-30T21:20:16.902Z,98895.36
2018-04-30T21:22:44.332Z,98886.84
2018-04-30T21:25:11.786Z,98908.19
2018-04-30T21:27:39.266Z,98924.53
2018-04-30T21:30:06.755Z,98920.61
2018-04-30T21:32:34.229Z,98916.14
2018-04-30T21:35:01.678Z,98937.77
2018-04-30T21:37:29.162Z,98936.83
2018-04-30T21:39:56.621Z,98942.75
2018-04-30T21:42:24.121Z,98937.83
2018-04-30T21:44:51.577Z,98938.36
2018-04-30T21:47:19.037Z,98944.70
2018-04-30T21:49:46.510Z,98950.58
2018-04-30T21:52:13.974Z,98961.63
2018-04-30T21:54:41.463Z,98961.63
2018-04-30T21:57:08.916Z,98962.45
2018-04-30T21:59:36.396Z,98970.30
2018-04-30T22:02:03.850Z,98972.87
2018-04-30T22:04:31.322Z,98978.39
2018-04-30T22:06:58.777Z,98993.66
2018-04-30T22:09:26.259Z,98979.44
2018-04-30T22:11:53.714Z,98988.64
2018-04-30T22:14:21.192Z,98995.67
2018-04-30T22:16:48.653Z,99001.06
2018-04-30T22:19:16.136Z,98999.72
2018-04-30T22:21:43.599Z,99004.88
2018-04-30T22:24:11.092Z,98993.78
2018-04-30T22:26:38.553Z,99000.78
2018-04-30T22:29:06.012Z,99010.37
2018-04-30T22:31:33.488Z,99010.63
2018-04-30T22:34:00.941Z,99023.56
2018-04-30T22:36:28.423Z,99033.80
2018-04-30T22:38:55.879Z,99023.95
2018-04-30T22:41:23.349Z,99026.48
2018-04-30T22:43:50.806Z,99030.92
2018-04-30T22:46:18.285Z,99034.02
2018-04-30T22:48:45.745Z,99035.11
2018-04-30T22:51:13.227Z,99040.20
2018-04-30T22:53:40.681Z,99044.39
2018-04-30T22:56:08.164Z,99037.49
2018-04-30T22:58:35.625Z,99042.42
2018-04-30T23:01:03.101Z,99045.98
2018-04-30T23:03:30.562Z,99051.53
2018-04-30T23:05:58.039Z,99049.75
2018-04-30T23:08:25.489Z,99060.25
2018-04-30T23:10:52.987Z,99055.87
2018-04-30T23:13:20.442Z,99060.80
2018-04-30T23:15:47.898Z,99067.79
2018-04-30T23:18:15.365Z,99060.39
2018-04-30T23:20:42.833Z,99066.44
2018-04-30T23:23:10.310Z,99077.63
2018-04-30T23:25:37.765Z,99079.76
2018-04-30T23:28:05.263Z,99080.33
2018-04-30T23:30:32.718Z,99080.83
2018-04-30T23:33:00.201Z,99084.19
2018-04-30T23:35:27.653Z,99088.90
2018-04-30T23:37:55.137Z,99078.72
2018-04-30T23:40:22.630Z,99091.33
2018-04-30T23:42:50.105Z,99082.19
2018-04-30T23:45:17.558Z,99082.38
2018-04-30T23:47:45.091Z,99097.98
2018-04-30T23:50:12.547Z,99101.23
2018-04-30T23:52:40.034Z,99106.95
2018-04-30T23:55:07.488Z,99110.98
2018-04-30T23:57:34.954Z,99108.00
